createdAt,value
2022-08-30T00:00:45.899Z,17.37
2022-08-30T00:01:42.513Z,17.20
2022-08-30T00:02:39.264Z,17.16
2022-08-30T00:03:47.244Z,17.36
2022-08-30T00:04:43.996Z,17.18
2022-08-30T00:05:42.030Z,17.07
2022-08-30T00:06:38.652Z,17.24
2022-08-30T00:07:35.258Z,17.39
2022-08-30T00:08:33.653Z,17.34
2022-08-30T00:09:32.070Z,17.16
2022-08-30T00:10:29.527Z,16.97
2022-08-30T00:11:28.937Z,16.91
2022-08-30T00:12:25.760Z,16.88
2022-08-30T00:13:23.531Z,16.81
2022-08-30T00:14:20.536Z,16.75
2022-08-30T00:15:18.271Z,16.77
2022-08-30T00:16:15.591Z,16.78
2022-08-30T00:17:12.753Z,16.78
2022-08-30T00:18:10.384Z,17.15
2022-08-30T00:19:07.077Z,17.12
2022-08-30T00:20:10.631Z,17.14
2022-08-30T00:21:08.695Z,17.14
2022-08-30T00:22:07.145Z,17.12
2022-08-30T00:23:05.664Z,17.15
2022-08-30T00:24:02.526Z,17.11
2022-08-30T00:25:00.920Z,16.96
2022-08-30T00:25:58.290Z,16.77
2022-08-30T00:26:54.902Z,16.64
2022-08-30T00:27:51.623Z,16.37
2022-08-30T00:28:48.348Z,16.54
2022-08-30T00:29:45.477Z,16.62
2022-08-30T00:30:43.567Z,16.61
2022-08-30T00:31:40.336Z,16.57
2022-08-30T00:32:37.031Z,16.83
2022-08-30T00:33:33.708Z,16.75
2022-08-30T00:34:31.845Z,16.89
2022-08-30T00:35:28.738Z,16.92
2022-08-30T00:36:25.423Z,16.83
2022-08-30T00:37:22.431Z,16.78
2022-08-30T00:38:19.075Z,16.92
2022-08-30T00:39:15.672Z,17.00
2022-08-30T00:40:15.947Z,16.94
2022-08-30T00:41:12.873Z,16.89
2022-08-30T00:42:10.374Z,16.97
2022-08-30T00:43:14.141Z,16.81
2022-08-30T00:44:11.295Z,16.83
2022-08-30T00:45:22.908Z,16.81
2022-08-30T00:46:19.612Z,16.70
2022-08-30T00:47:16.386Z,16.82
2022-08-30T00:48:13.164Z,16.65
2022-08-30T00:49:12.869Z,16.65
2022-08-30T00:50:11.340Z,16.70
2022-08-30T00:51:11.487Z,16.64
2022-08-30T00:52:08.976Z,16.63
2022-08-30T00:53:10.810Z,16.67
2022-08-30T00:54:08.345Z,16.75
2022-08-30T00:55:05.898Z,16.79
2022-08-30T00:56:04.504Z,16.68
2022-08-30T00:57:01.173Z,16.84
2022-08-30T00:58:02.367Z,16.93
2022-08-30T00:59:03.315Z,16.90
2022-08-30T01:00:00.248Z,17.10
2022-08-30T01:00:59.459Z,17.08
2022-08-30T01:01:56.436Z,17.01
2022-08-30T01:02:53.225Z,16.92
2022-08-30T01:03:50.546Z,16.88
2022-08-30T01:04:48.164Z,17.05
2022-08-30T01:05:45.786Z,17.12
2022-08-30T01:06:42.696Z,17.18
2022-08-30T01:07:40.699Z,17.08
2022-08-30T01:08:37.792Z,17.04
2022-08-30T01:09:36.107Z,16.87
2022-08-30T01:10:34.588Z,16.97
2022-08-30T01:11:34.686Z,17.03
2022-08-30T01:12:32.054Z,16.95
2022-08-30T01:13:28.750Z,17.03
2022-08-30T01:14:26.177Z,17.04
2022-08-30T01:15:23.422Z,16.75
2022-08-30T01:16:21.511Z,16.63
2022-08-30T01:17:21.290Z,16.63
2022-08-30T01:18:22.275Z,16.58
2022-08-30T01:19:41.105Z,16.58
2022-08-30T01:20:49.563Z,16.60
2022-08-30T01:21:50.843Z,16.65
2022-08-30T01:22:50.498Z,16.70
2022-08-30T01:23:50.344Z,16.75
2022-08-30T01:24:50.518Z,16.92
2022-08-30T01:25:49.964Z,17.19
2022-08-30T01:26:46.626Z,17.21
2022-08-30T01:27:49.703Z,17.23
2022-08-30T01:28:48.812Z,17.19
2022-08-30T01:29:45.898Z,17.21
2022-08-30T01:30:45.945Z,17.37
2022-08-30T01:31:42.676Z,17.30
2022-08-30T01:32:47.999Z,17.39
2022-08-30T01:33:44.625Z,17.51
2022-08-30T01:34:41.360Z,17.49
2022-08-30T01:35:53.772Z,17.57
2022-08-30T01:36:50.628Z,17.66
2022-08-30T01:37:47.748Z,17.36
2022-08-30T01:38:56.961Z,17.56
2022-08-30T01:39:54.306Z,17.46
2022-08-30T01:40:56.489Z,17.40
2022-08-30T01:41:53.185Z,17.34
2022-08-30T01:42:50.241Z,17.36
2022-08-30T01:43:47.818Z,17.33
2022-08-30T01:44:45.602Z,17.34
2022-08-30T01:45:42.509Z,17.30
2022-08-30T01:46:45.957Z,17.30
2022-08-30T01:47:42.679Z,17.28
2022-08-30T01:48:41.199Z,17.16
2022-08-30T01:49:39.088Z,17.15
2022-08-30T01:50:35.716Z,17.13
2022-08-30T01:51:35.242Z,17.22
2022-08-30T01:52:32.020Z,17.06
2022-08-30T01:53:29.065Z,16.86
2022-08-30T01:54:27.477Z,16.82
2022-08-30T01:55:30.350Z,16.71
2022-08-30T01:56:29.387Z,16.75
2022-08-30T01:57:26.988Z,16.67
2022-08-30T01:58:23.890Z,16.65
2022-08-30T01:59:20.505Z,16.67
2022-08-30T02:00:17.538Z,16.77
2022-08-30T02:01:18.056Z,16.90
2022-08-30T02:02:16.898Z,16.82
2022-08-30T02:03:13.796Z,17.04
2022-08-30T02:04:11.943Z,17.04
2022-08-30T02:05:08.874Z,16.97
2022-08-30T02:06:12.159Z,16.95
2022-08-30T02:07:09.017Z,16.96
2022-08-30T02:08:05.669Z,17.01
2022-08-30T02:09:02.814Z,16.84
2022-08-30T02:09:59.473Z,16.88
2022-08-30T02:10:56.194Z,16.92
2022-08-30T02:11:52.956Z,17.02
2022-08-30T02:12:49.871Z,16.86
2022-08-30T02:13:47.163Z,16.85
2022-08-30T02:14:44.517Z,16.96
2022-08-30T02:15:41.785Z,16.87
2022-08-30T02:16:39.858Z,16.85
2022-08-30T02:17:36.943Z,16.70
2022-08-30T02:18:34.783Z,16.69
2022-08-30T02:19:31.515Z,16.57
2022-08-30T02:20:28.358Z,16.48
2022-08-30T02:21:27.770Z,16.46
2022-08-30T02:22:24.394Z,16.45
2022-08-30T02:23:21.093Z,16.51
2022-08-30T02:24:17.775Z,16.47
2022-08-30T02:25:20.603Z,16.47
2022-08-30T02:26:18.587Z,16.59
2022-08-30T02:27:15.224Z,16.42
2022-08-30T02:28:14.968Z,16.43
2022-08-30T02:29:11.989Z,16.37
2022-08-30T02:30:10.257Z,16.34
2022-08-30T02:31:07.229Z,16.29
2022-08-30T02:32:04.132Z,16.52
2022-08-30T02:33:00.900Z,16.58
2022-08-30T02:33:57.649Z,16.40
2022-08-30T02:34:55.431Z,16.13
2022-08-30T02:35:52.615Z,16.23
2022-08-30T02:36:49.409Z,16.19
2022-08-30T02:37:46.067Z,16.24
2022-08-30T02:38:42.701Z,16.16
2022-08-30T02:39:39.387Z,16.21
2022-08-30T02:40:36.460Z,16.15
2022-08-30T02:41:36.074Z,16.06
2022-08-30T02:42:32.737Z,16.08
2022-08-30T02:43:29.432Z,16.07
2022-08-30T02:44:26.203Z,15.99
2022-08-30T02:45:23.901Z,15.92
2022-08-30T02:46:20.682Z,15.92
2022-08-30T02:47:17.474Z,15.93
2022-08-30T02:48:14.783Z,15.82
2022-08-30T02:49:32.701Z,15.69
2022-08-30T02:50:28.237Z,15.94
2022-08-30T02:51:24.946Z,15.95
2022-08-30T02:52:26.561Z,16.07
2022-08-30T02:53:24.578Z,16.15
2022-08-30T02:54:23.854Z,16.17
2022-08-30T02:55:20.535Z,16.15
2022-08-30T02:56:17.145Z,16.06
2022-08-30T02:57:19.983Z,15.96
2022-08-30T02:58:17.153Z,15.86
2022-08-30T02:59:14.982Z,15.79
2022-08-30T03:00:14.844Z,15.81
2022-08-30T03:01:14.377Z,15.86
2022-08-30T03:02:12.110Z,15.86
2022-08-30T03:03:08.891Z,15.88
2022-08-30T03:04:06.339Z,15.95
2022-08-30T03:05:04.272Z,15.99
2022-08-30T03:06:03.268Z,16.06
2022-08-30T03:06:59.946Z,16.16
2022-08-30T03:07:56.603Z,16.12
2022-08-30T03:08:53.687Z,16.12
2022-08-30T03:09:50.596Z,16.22
2022-08-30T03:10:47.239Z,16.23
2022-08-30T03:11:44.946Z,16.23
2022-08-30T03:12:42.712Z,16.26
2022-08-30T03:13:39.686Z,16.27
2022-08-30T03:14:38.643Z,16.21
2022-08-30T03:15:37.330Z,16.08
2022-08-30T03:16:34.054Z,15.95
2022-08-30T03:17:31.276Z,15.96
2022-08-30T03:18:28.679Z,15.85
2022-08-30T03:19:25.786Z,15.91
2022-08-30T03:20:23.809Z,15.74
2022-08-30T03:21:20.471Z,15.96
2022-08-30T03:22:17.782Z,15.92
2022-08-30T03:23:21.377Z,15.93
2022-08-30T03:24:18.785Z,15.95
2022-08-30T03:25:16.030Z,15.61
2022-08-30T03:26:15.073Z,15.74
2022-08-30T03:27:12.377Z,15.87
2022-08-30T03:28:09.132Z,15.90
2022-08-30T03:29:05.924Z,15.94
2022-08-30T03:30:03.977Z,16.08
2022-08-30T03:31:00.718Z,16.19
2022-08-30T03:31:58.182Z,16.18
2022-08-30T03:32:54.911Z,16.16
2022-08-30T03:33:51.546Z,16.26
2022-08-30T03:34:48.229Z,16.42
2022-08-30T03:35:44.881Z,16.39
2022-08-30T03:36:41.611Z,16.32
2022-08-30T03:37:38.224Z,16.28
2022-08-30T03:38:35.008Z,16.38
2022-08-30T03:39:32.015Z,16.24
2022-08-30T03:40:29.172Z,16.26
2022-08-30T03:41:26.668Z,16.24
2022-08-30T03:42:24.284Z,16.16
2022-08-30T03:43:21.543Z,16.14
2022-08-30T03:44:21.592Z,16.09
2022-08-30T03:45:19.249Z,16.04
2022-08-30T03:46:16.418Z,16.12
2022-08-30T03:47:13.260Z,16.29
2022-08-30T03:48:09.992Z,16.32
2022-08-30T03:49:07.097Z,16.29
2022-08-30T03:50:06.051Z,16.25
2022-08-30T03:51:03.120Z,16.29
2022-08-30T03:52:05.821Z,16.21
2022-08-30T03:53:02.898Z,16.25
2022-08-30T03:54:00.273Z,16.14
2022-08-30T03:54:56.995Z,16.15
2022-08-30T03:55:53.976Z,16.24
2022-08-30T03:56:51.930Z,16.23
2022-08-30T03:57:48.618Z,16.24
2022-08-30T03:58:48.944Z,15.88
2022-08-30T03:59:45.556Z,15.88
2022-08-30T04:00:42.448Z,15.99
2022-08-30T04:01:39.751Z,15.93
2022-08-30T04:02:36.556Z,15.89
2022-08-30T04:03:34.087Z,15.78
2022-08-30T04:04:31.113Z,15.77
2022-08-30T04:05:27.990Z,15.74
2022-08-30T04:06:24.939Z,15.65
2022-08-30T04:07:21.603Z,15.80
2022-08-30T04:08:18.283Z,15.70
2022-08-30T04:09:14.950Z,15.88
2022-08-30T04:10:12.249Z,15.75
2022-08-30T04:11:08.919Z,15.86
2022-08-30T04:12:07.049Z,15.89
2022-08-30T04:13:03.894Z,15.93
2022-08-30T04:14:00.630Z,16.04
2022-08-30T04:14:57.247Z,16.40
2022-08-30T04:15:54.040Z,16.52
2022-08-30T04:16:50.691Z,16.64
2022-08-30T04:17:48.233Z,16.62
2022-08-30T04:18:44.941Z,16.48
2022-08-30T04:19:41.533Z,16.49
2022-08-30T04:20:38.554Z,16.23
2022-08-30T04:21:42.916Z,16.29
2022-08-30T04:22:40.129Z,16.23
2022-08-30T04:23:36.763Z,16.15
2022-08-30T04:24:34.580Z,16.14
2022-08-30T04:25:31.286Z,16.49
2022-08-30T04:26:29.338Z,16.51
2022-08-30T04:27:26.324Z,16.60
2022-08-30T04:28:23.507Z,16.62
2022-08-30T04:29:20.126Z,16.62
2022-08-30T04:30:17.900Z,16.48
2022-08-30T04:31:17.267Z,16.69
2022-08-30T04:32:14.337Z,16.71
2022-08-30T04:33:12.736Z,16.71
2022-08-30T04:34:11.666Z,16.70
2022-08-30T04:35:08.892Z,16.56
2022-08-30T04:36:07.519Z,16.58
2022-08-30T04:37:04.264Z,16.60
2022-08-30T04:38:01.030Z,16.65
2022-08-30T04:38:57.634Z,16.74
2022-08-30T04:40:00.689Z,16.75
2022-08-30T04:40:57.527Z,16.79
2022-08-30T04:41:54.367Z,16.83
2022-08-30T04:42:54.197Z,16.81
2022-08-30T04:43:51.003Z,16.80
2022-08-30T04:44:47.597Z,16.89
2022-08-30T04:45:44.281Z,16.74
2022-08-30T04:46:44.809Z,16.85
2022-08-30T04:47:44.670Z,16.83
2022-08-30T04:48:41.321Z,16.85
2022-08-30T04:49:38.207Z,16.84
2022-08-30T04:50:35.176Z,16.84
2022-08-30T04:51:32.320Z,16.82
2022-08-30T04:52:29.442Z,16.88
2022-08-30T04:53:26.369Z,16.75
2022-08-30T04:54:23.067Z,16.84
2022-08-30T04:55:20.471Z,16.93
2022-08-30T04:56:22.268Z,16.88
2022-08-30T04:57:18.935Z,16.69
2022-08-30T04:58:15.551Z,16.56
2022-08-30T04:59:13.257Z,16.61
2022-08-30T05:00:12.968Z,16.72
2022-08-30T05:01:19.915Z,16.67
2022-08-30T05:02:17.761Z,16.74
2022-08-30T05:03:16.277Z,16.83
2022-08-30T05:04:14.858Z,16.98
2022-08-30T05:05:30.148Z,17.10
2022-08-30T05:06:31.121Z,17.15
2022-08-30T05:07:27.788Z,17.18
2022-08-30T05:08:24.948Z,17.24
2022-08-30T05:09:21.787Z,17.34
2022-08-30T05:10:18.436Z,17.44
2022-08-30T05:11:16.793Z,17.39
2022-08-30T05:12:13.520Z,17.50
2022-08-30T05:13:10.875Z,17.53
2022-08-30T05:14:07.497Z,17.57
2022-08-30T05:15:04.783Z,17.64
2022-08-30T05:16:02.693Z,17.57
2022-08-30T05:16:59.376Z,17.61
2022-08-30T05:17:56.001Z,17.59
2022-08-30T05:18:53.777Z,17.58
2022-08-30T05:19:50.489Z,17.57
2022-08-30T05:20:47.124Z,17.60
2022-08-30T05:21:43.775Z,17.75
2022-08-30T05:22:50.022Z,17.80
2022-08-30T05:23:50.740Z,17.89
2022-08-30T05:24:47.415Z,17.96
2022-08-30T05:25:44.106Z,18.01
2022-08-30T05:26:40.791Z,17.94
2022-08-30T05:27:37.724Z,17.91
2022-08-30T05:28:35.730Z,18.01
2022-08-30T05:29:32.618Z,17.92
2022-08-30T05:30:33.083Z,17.95
2022-08-30T05:31:35.201Z,18.06
2022-08-30T05:32:31.944Z,17.99
2022-08-30T05:33:29.091Z,18.10
2022-08-30T05:34:26.887Z,18.13
2022-08-30T05:35:25.705Z,18.14
2022-08-30T05:36:25.709Z,18.25
2022-08-30T05:37:22.444Z,18.15
2022-08-30T05:38:19.237Z,18.16
2022-08-30T05:39:15.917Z,18.16
2022-08-30T05:40:17.758Z,18.00
2022-08-30T05:41:14.879Z,18.09
2022-08-30T05:42:12.220Z,18.13
2022-08-30T05:43:14.317Z,17.75
2022-08-30T05:44:11.625Z,18.25
2022-08-30T05:45:09.422Z,18.19
2022-08-30T05:46:11.753Z,18.19
2022-08-30T05:47:08.501Z,18.13
2022-08-30T05:48:05.249Z,18.31
2022-08-30T05:49:04.868Z,18.32
2022-08-30T05:50:01.503Z,18.25
2022-08-30T05:51:07.860Z,18.24
2022-08-30T05:52:05.360Z,18.42
2022-08-30T05:53:02.143Z,18.46
2022-08-30T05:53:59.611Z,18.39
2022-08-30T05:55:02.740Z,18.33
2022-08-30T05:56:01.765Z,18.50
2022-08-30T05:56:58.376Z,18.58
2022-08-30T05:57:55.015Z,18.52
2022-08-30T05:58:51.978Z,18.44
2022-08-30T05:59:48.829Z,18.45
2022-08-30T06:00:45.630Z,18.59
2022-08-30T06:01:45.419Z,18.72
2022-08-30T06:02:42.811Z,18.69
2022-08-30T06:03:39.571Z,18.81
2022-08-30T06:04:36.977Z,18.92
2022-08-30T06:05:33.713Z,18.81
2022-08-30T06:06:35.171Z,18.87
2022-08-30T06:07:31.812Z,18.79
2022-08-30T06:08:28.506Z,18.88
2022-08-30T06:09:25.115Z,18.78
2022-08-30T06:10:21.809Z,18.77
2022-08-30T06:11:21.198Z,18.82
2022-08-30T06:12:17.788Z,18.87
2022-08-30T06:13:14.892Z,18.95
2022-08-30T06:14:12.130Z,18.93
2022-08-30T06:15:09.284Z,18.89
2022-08-30T06:16:06.107Z,18.74
2022-08-30T06:17:02.783Z,18.92
2022-08-30T06:17:59.898Z,19.03
2022-08-30T06:19:00.184Z,19.08
2022-08-30T06:19:56.871Z,19.12
2022-08-30T06:20:53.585Z,19.17
2022-08-30T06:21:51.563Z,19.15
2022-08-30T06:22:48.176Z,19.24
2022-08-30T06:23:45.250Z,19.11
2022-08-30T06:24:56.914Z,19.18
2022-08-30T06:25:53.953Z,19.08
2022-08-30T06:26:50.617Z,19.09
2022-08-30T06:27:47.588Z,18.83
2022-08-30T06:28:44.647Z,19.15
2022-08-30T06:29:41.810Z,19.52
2022-08-30T06:30:41.008Z,19.59
2022-08-30T06:31:37.845Z,19.28
2022-08-30T06:32:35.217Z,19.47
2022-08-30T06:33:31.973Z,19.53
2022-08-30T06:34:29.618Z,19.58
2022-08-30T06:35:27.928Z,19.81
2022-08-30T06:36:25.719Z,19.83
2022-08-30T06:37:29.612Z,20.06
2022-08-30T06:38:27.574Z,20.26
2022-08-30T06:39:24.454Z,20.10
2022-08-30T06:40:21.832Z,20.04
2022-08-30T06:41:21.981Z,20.13
2022-08-30T06:42:18.654Z,20.14
2022-08-30T06:43:15.354Z,20.15
2022-08-30T06:44:12.289Z,19.99
2022-08-30T06:45:11.081Z,20.03
2022-08-30T06:46:11.271Z,19.54
2022-08-30T06:47:08.039Z,19.70
2022-08-30T06:48:04.638Z,19.83
2022-08-30T06:49:01.805Z,19.96
2022-08-30T06:49:58.783Z,19.87
2022-08-30T06:50:55.928Z,19.80
2022-08-30T06:51:53.974Z,19.63
2022-08-30T06:52:50.818Z,19.61
2022-08-30T06:53:48.987Z,19.60
2022-08-30T06:54:45.876Z,19.79
2022-08-30T06:55:42.569Z,19.94
2022-08-30T06:56:55.281Z,19.97
2022-08-30T06:57:56.689Z,19.87
2022-08-30T06:58:53.531Z,19.98
2022-08-30T06:59:53.076Z,19.83
2022-08-30T07:00:52.090Z,19.62
2022-08-30T07:01:49.180Z,19.72
2022-08-30T07:02:45.935Z,19.77
2022-08-30T07:03:42.752Z,19.94
2022-08-30T07:04:39.396Z,19.83
2022-08-30T07:05:36.064Z,19.65
2022-08-30T07:06:33.359Z,19.63
2022-08-30T07:07:30.052Z,19.41
2022-08-30T07:08:27.420Z,19.46
2022-08-30T07:09:24.566Z,19.36
2022-08-30T07:10:21.717Z,19.65
2022-08-30T07:11:36.332Z,19.45
2022-08-30T07:12:32.994Z,19.42
2022-08-30T07:13:30.180Z,19.61
2022-08-30T07:14:26.796Z,19.68
2022-08-30T07:15:23.601Z,19.49
2022-08-30T07:16:20.568Z,19.51
2022-08-30T07:17:35.656Z,19.51
2022-08-30T07:18:50.820Z,19.24
2022-08-30T07:19:49.365Z,19.30
2022-08-30T07:20:46.073Z,19.39
2022-08-30T07:21:43.978Z,19.38
2022-08-30T07:22:40.606Z,19.33
2022-08-30T07:23:38.033Z,19.33
2022-08-30T07:24:34.653Z,19.02
2022-08-30T07:25:31.363Z,19.05
2022-08-30T07:26:31.902Z,19.13
2022-08-30T07:27:28.802Z,19.16
2022-08-30T07:28:25.461Z,19.19
2022-08-30T07:29:22.222Z,19.21
2022-08-30T07:30:19.281Z,19.19
2022-08-30T07:31:18.267Z,19.18
2022-08-30T07:32:16.603Z,19.23
2022-08-30T07:33:13.454Z,19.22
2022-08-30T07:34:10.554Z,19.17
2022-08-30T07:35:07.563Z,19.08
2022-08-30T07:36:05.349Z,18.95
2022-08-30T07:37:02.072Z,18.96
2022-08-30T07:37:59.326Z,18.96
2022-08-30T07:38:56.172Z,18.81
2022-08-30T07:39:53.008Z,18.92
2022-08-30T07:40:49.689Z,18.97
2022-08-30T07:41:46.334Z,18.75
2022-08-30T07:42:43.614Z,18.91
2022-08-30T07:43:40.266Z,18.58
2022-08-30T07:44:38.117Z,18.68
2022-08-30T07:45:35.447Z,18.70
2022-08-30T07:46:32.343Z,18.66
2022-08-30T07:47:29.031Z,18.66
2022-08-30T07:48:25.673Z,18.83
2022-08-30T07:49:22.536Z,18.88
2022-08-30T07:50:19.189Z,18.42
2022-08-30T07:51:21.217Z,17.99
2022-08-30T07:52:17.892Z,17.93
2022-08-30T07:53:14.663Z,17.75
2022-08-30T07:54:11.811Z,17.70
2022-08-30T07:55:09.054Z,17.91
2022-08-30T07:56:05.865Z,18.31
2022-08-30T07:57:02.506Z,18.27
2022-08-30T07:57:59.274Z,18.42
2022-08-30T07:58:56.012Z,18.53
2022-08-30T07:59:52.929Z,18.59
2022-08-30T08:00:49.665Z,18.63
2022-08-30T08:01:46.410Z,18.68
2022-08-30T08:02:43.190Z,18.74
2022-08-30T08:03:41.886Z,18.74
2022-08-30T08:04:38.542Z,18.76
2022-08-30T08:05:43.870Z,18.79
2022-08-30T08:06:40.889Z,18.56
2022-08-30T08:07:37.536Z,18.66
2022-08-30T08:08:34.404Z,18.80
2022-08-30T08:09:31.110Z,18.69
2022-08-30T08:10:27.772Z,18.78
2022-08-30T08:11:30.386Z,18.87
2022-08-30T08:12:29.701Z,18.80
2022-08-30T08:13:28.580Z,18.98
2022-08-30T08:14:29.914Z,18.99
2022-08-30T08:15:26.819Z,18.95
2022-08-30T08:16:27.563Z,18.34
2022-08-30T08:17:24.209Z,18.39
2022-08-30T08:18:20.875Z,18.71
2022-08-30T08:19:17.671Z,18.71
2022-08-30T08:20:14.349Z,18.57
2022-08-30T08:21:11.599Z,18.56
2022-08-30T08:22:20.558Z,18.40
2022-08-30T08:23:18.084Z,18.48
2022-08-30T08:24:15.195Z,18.37
2022-08-30T08:25:12.000Z,18.57
2022-08-30T08:26:08.805Z,18.93
2022-08-30T08:27:05.748Z,19.05
2022-08-30T08:28:02.710Z,19.23
2022-08-30T08:28:59.369Z,19.47
2022-08-30T08:29:56.008Z,19.42
2022-08-30T08:30:53.041Z,19.23
2022-08-30T08:31:50.186Z,19.19
2022-08-30T08:32:48.575Z,19.25
2022-08-30T08:33:45.442Z,19.47
2022-08-30T08:34:42.122Z,19.31
2022-08-30T08:35:39.042Z,19.19
2022-08-30T08:36:36.163Z,19.04
2022-08-30T08:37:32.842Z,18.83
2022-08-30T08:38:29.460Z,18.96
2022-08-30T08:39:26.140Z,19.16
2022-08-30T08:40:23.318Z,19.25
2022-08-30T08:41:52.333Z,19.14
2022-08-30T08:42:52.761Z,19.45
2022-08-30T08:43:49.386Z,19.64
2022-08-30T08:44:58.656Z,19.63
2022-08-30T08:46:04.423Z,19.76
2022-08-30T08:47:18.046Z,19.80
2022-08-30T08:48:32.123Z,19.66
2022-08-30T08:49:46.286Z,19.85
2022-08-30T08:51:03.030Z,19.75
2022-08-30T08:52:18.222Z,19.86
2022-08-30T08:53:50.436Z,19.97
2022-08-30T08:54:59.060Z,20.12
2022-08-30T08:55:56.066Z,19.89
2022-08-30T08:56:53.426Z,19.64
2022-08-30T08:57:52.440Z,19.91
2022-08-30T08:58:54.794Z,20.04
2022-08-30T08:59:55.121Z,19.95
2022-08-30T09:00:52.691Z,20.06
2022-08-30T09:01:51.022Z,20.13
2022-08-30T09:03:03.042Z,20.10
2022-08-30T09:04:05.575Z,20.28
2022-08-30T09:05:02.744Z,20.22
2022-08-30T09:06:04.181Z,19.95
2022-08-30T09:07:05.577Z,19.67
2022-08-30T09:08:09.940Z,19.84
2022-08-30T09:09:06.958Z,20.00
2022-08-30T09:10:04.471Z,20.11
2022-08-30T09:11:05.418Z,20.15
2022-08-30T09:12:03.221Z,20.15
2022-08-30T09:13:02.259Z,20.13
2022-08-30T09:14:00.149Z,20.22
2022-08-30T09:15:16.787Z,20.07
2022-08-30T09:16:51.987Z,20.31
2022-08-30T09:18:19.340Z,20.53
2022-08-30T09:19:40.420Z,19.92
2022-08-30T09:20:45.807Z,19.89
2022-08-30T09:21:42.438Z,19.99
2022-08-30T09:22:46.747Z,20.24
2022-08-30T09:23:54.788Z,19.95
2022-08-30T09:25:06.023Z,20.22
2022-08-30T09:26:06.233Z,20.29
2022-08-30T09:27:17.487Z,20.34
2022-08-30T09:28:24.256Z,20.07
2022-08-30T09:29:22.824Z,19.79
2022-08-30T09:30:22.245Z,19.98
2022-08-30T09:31:52.946Z,20.01
2022-08-30T09:33:01.939Z,20.01
2022-08-30T09:34:05.472Z,19.95
2022-08-30T09:35:05.064Z,20.02
2022-08-30T09:36:13.929Z,19.99
2022-08-30T09:37:44.535Z,19.74
2022-08-30T09:38:41.298Z,19.92
2022-08-30T09:39:42.730Z,20.00
2022-08-30T09:40:51.970Z,19.79
2022-08-30T09:41:50.505Z,19.81
2022-08-30T09:43:07.797Z,19.78
2022-08-30T09:44:10.728Z,19.98
2022-08-30T09:45:19.336Z,19.87
2022-08-30T09:46:24.628Z,19.81
2022-08-30T09:47:31.797Z,19.93
2022-08-30T09:48:40.720Z,20.04
2022-08-30T09:49:40.128Z,20.16
2022-08-30T09:50:37.230Z,20.08
2022-08-30T09:51:55.352Z,20.19
2022-08-30T09:53:01.173Z,20.19
2022-08-30T09:54:18.542Z,20.15
2022-08-30T09:55:42.856Z,20.21
2022-08-30T09:56:57.186Z,20.30
2022-08-30T09:58:08.566Z,20.16
2022-08-30T09:59:20.016Z,20.26
2022-08-30T10:00:22.711Z,20.29
2022-08-30T10:01:28.086Z,20.34
2022-08-30T10:02:59.848Z,20.14
2022-08-30T10:04:09.585Z,19.78
2022-08-30T10:05:13.205Z,19.60
2022-08-30T10:06:31.307Z,19.84
2022-08-30T10:07:45.017Z,19.48
2022-08-30T10:09:00.824Z,19.70
2022-08-30T10:10:06.022Z,19.66
2022-08-30T10:11:16.381Z,19.85
2022-08-30T10:12:21.116Z,19.90
2022-08-30T10:13:33.656Z,19.64
2022-08-30T10:14:56.441Z,19.92
2022-08-30T10:16:06.733Z,20.27
2022-08-30T10:17:09.966Z,20.15
2022-08-30T10:18:46.050Z,20.09
2022-08-30T10:20:07.540Z,20.16
2022-08-30T10:21:07.080Z,20.06
2022-08-30T10:22:25.095Z,20.22
2022-08-30T10:23:29.699Z,20.32
2022-08-30T10:24:38.085Z,20.45
2022-08-30T10:25:44.132Z,20.41
2022-08-30T10:26:54.503Z,20.44
2022-08-30T10:28:05.043Z,20.49
2022-08-30T10:29:09.222Z,20.51
2022-08-30T10:30:10.667Z,20.54
2022-08-30T10:31:15.296Z,20.56
2022-08-30T10:32:24.727Z,20.64
2022-08-30T10:33:26.597Z,20.59
2022-08-30T10:34:45.415Z,20.57
2022-08-30T10:35:50.290Z,20.53
2022-08-30T10:36:58.265Z,20.59
2022-08-30T10:38:06.474Z,20.68
2022-08-30T10:39:04.376Z,20.49
2022-08-30T10:40:34.116Z,20.33
2022-08-30T10:41:46.251Z,20.34
2022-08-30T10:42:42.892Z,20.53
2022-08-30T10:43:51.008Z,20.34
2022-08-30T10:45:10.573Z,20.67
2022-08-30T10:46:20.140Z,20.67
2022-08-30T10:47:23.262Z,20.63
2022-08-30T10:48:31.481Z,20.09
2022-08-30T10:49:35.064Z,20.20
2022-08-30T10:50:41.363Z,20.49
2022-08-30T10:52:02.502Z,20.83
2022-08-30T10:53:23.709Z,21.07
2022-08-30T10:54:32.578Z,21.07
2022-08-30T10:55:35.675Z,21.12
2022-08-30T10:56:35.648Z,20.95
2022-08-30T10:57:32.377Z,20.60
2022-08-30T10:58:31.463Z,20.51
2022-08-30T10:59:28.953Z,20.66
2022-08-30T11:01:08.477Z,21.01
2022-08-30T11:02:21.424Z,21.01
2022-08-30T11:03:23.766Z,21.25
2022-08-30T11:04:45.622Z,21.03
2022-08-30T11:05:53.937Z,21.15
2022-08-30T11:07:10.184Z,21.14
2022-08-30T11:08:36.674Z,21.30
2022-08-30T11:10:01.085Z,21.43
2022-08-30T11:11:07.010Z,21.71
2022-08-30T11:12:28.035Z,21.76
2022-08-30T11:13:29.860Z,21.43
2022-08-30T11:14:26.947Z,21.42
2022-08-30T11:15:27.733Z,21.42
2022-08-30T11:16:45.327Z,21.19
2022-08-30T11:18:09.907Z,21.06
2022-08-30T11:19:45.580Z,21.04
2022-08-30T11:20:50.591Z,21.23
2022-08-30T11:21:48.870Z,21.26
2022-08-30T11:23:13.563Z,21.37
2022-08-30T11:24:16.622Z,21.30
2022-08-30T11:25:38.781Z,21.45
2022-08-30T11:26:50.983Z,21.44
2022-08-30T11:27:58.996Z,21.03
2022-08-30T11:28:58.351Z,20.97
2022-08-30T11:29:55.061Z,21.12
2022-08-30T11:30:52.483Z,20.95
2022-08-30T11:31:49.177Z,21.23
2022-08-30T11:33:09.366Z,21.50
2022-08-30T11:34:07.668Z,21.46
2022-08-30T11:35:05.902Z,21.38
2022-08-30T11:36:09.669Z,21.29
2022-08-30T11:37:09.666Z,21.08
2022-08-30T11:38:40.066Z,21.33
2022-08-30T11:39:49.090Z,21.48
2022-08-30T11:40:49.372Z,21.57
2022-08-30T11:42:06.954Z,21.47
2022-08-30T11:43:37.638Z,21.71
2022-08-30T11:44:34.660Z,21.65
2022-08-30T11:45:36.230Z,21.68
2022-08-30T11:46:39.036Z,21.67
2022-08-30T11:47:47.331Z,21.76
2022-08-30T11:48:54.254Z,21.75
2022-08-30T11:50:09.802Z,21.59
2022-08-30T11:51:24.072Z,21.38
2022-08-30T11:53:08.239Z,21.31
2022-08-30T11:54:23.040Z,21.16
2022-08-30T11:56:25.730Z,20.85
2022-08-30T11:57:37.266Z,21.04
2022-08-30T11:58:43.954Z,21.52
2022-08-30T12:00:01.972Z,21.98
2022-08-30T12:01:50.030Z,21.64
2022-08-30T12:02:47.338Z,21.79
2022-08-30T12:03:44.997Z,21.58
2022-08-30T12:04:47.207Z,21.42
2022-08-30T12:05:51.376Z,21.49
2022-08-30T12:06:53.066Z,21.39
2022-08-30T12:07:59.526Z,21.28
2022-08-30T12:09:02.253Z,21.07
2022-08-30T12:10:01.012Z,20.43
2022-08-30T12:11:28.788Z,20.58
2022-08-30T12:12:26.891Z,20.72
2022-08-30T12:13:39.077Z,20.85
2022-08-30T12:14:47.537Z,21.07
2022-08-30T12:15:57.984Z,20.91
2022-08-30T12:17:14.177Z,21.09
2022-08-30T12:18:30.259Z,21.10
2022-08-30T12:19:28.633Z,21.32
2022-08-30T12:20:43.887Z,21.74
2022-08-30T12:21:44.709Z,20.99
2022-08-30T12:22:41.888Z,20.67
2022-08-30T12:23:46.897Z,20.79
2022-08-30T12:24:51.434Z,20.91
2022-08-30T12:25:50.580Z,20.92
2022-08-30T12:26:50.078Z,20.88
2022-08-30T12:27:46.778Z,20.69
2022-08-30T12:28:46.610Z,20.77
2022-08-30T12:29:52.692Z,21.06
2022-08-30T12:30:49.873Z,20.98
2022-08-30T12:31:51.212Z,21.33
2022-08-30T12:32:50.901Z,21.63
2022-08-30T12:33:53.964Z,21.47
2022-08-30T12:35:03.214Z,21.72
2022-08-30T12:36:01.387Z,22.02
2022-08-30T12:37:04.543Z,21.84
2022-08-30T12:38:12.597Z,21.92
2022-08-30T12:39:09.369Z,22.28
2022-08-30T12:40:08.958Z,22.34
2022-08-30T12:41:05.951Z,22.67
2022-08-30T12:42:22.415Z,22.15
2022-08-30T12:43:40.818Z,22.23
2022-08-30T12:44:38.988Z,22.18
2022-08-30T12:45:44.218Z,22.28
2022-08-30T12:46:43.200Z,22.44
2022-08-30T12:47:51.832Z,22.59
2022-08-30T12:48:49.445Z,22.62
2022-08-30T12:49:47.098Z,22.61
2022-08-30T12:50:54.407Z,22.53
2022-08-30T12:51:51.174Z,22.24
2022-08-30T12:53:00.014Z,22.46
2022-08-30T12:54:06.210Z,22.67
2022-08-30T12:55:17.453Z,22.82
2022-08-30T12:56:21.241Z,22.77
2022-08-30T12:58:00.550Z,22.90
2022-08-30T12:58:57.775Z,22.99
2022-08-30T12:59:59.466Z,23.00
2022-08-30T13:01:18.594Z,22.21
2022-08-30T13:02:27.635Z,22.50
2022-08-30T13:03:33.249Z,22.55
2022-08-30T13:04:29.938Z,22.34
2022-08-30T13:05:47.796Z,22.65
2022-08-30T13:06:56.051Z,23.13
2022-08-30T13:07:52.723Z,23.18
2022-08-30T13:08:52.197Z,23.34
2022-08-30T13:09:49.909Z,23.18